Time;durP1;ratioP1;P1;durP2;ratioP2;P2;SDS_P1;SDS_P2;PMS_P1;PMS_P2;Temp;Humidity;BMP_temperature;BMP_pressure;BME280_temperature;BME280_humidity;BME280_pressure;Samples;Min_cycle;Max_cycle;Signal;HPM_P1;HPM_P2
2021/08/03 00:00:04;;;;;;;4.00;2.30;;;14.60;99.90;;;;;;5063328;28;20947;-72
2021/08/03 00:02:53;;;;;;;5.13;2.93;;;14.60;99.90;;;;;;5064858;28;20521;-72
2021/08/03 00:05:43;;;;;;;7.73;2.10;;;14.60;99.90;;;;;;5071906;28;20863;-72
2021/08/03 00:08:32;;;;;;;3.53;2.27;;;14.70;99.90;;;;;;5063841;28;20838;-72
2021/08/03 00:11:18;;;;;;;3.00;2.30;;;14.80;99.90;;;;;;5074063;28;20475;-72
2021/08/03 00:14:05;;;;;;;7.37;2.60;;;14.80;99.90;;;;;;5074660;28;20479;-72
2021/08/03 00:16:53;;;;;;;7.33;2.40;;;14.70;99.90;;;;;;5073313;28;20470;-71
2021/08/03 00:19:39;;;;;;;5.77;2.60;;;14.60;99.90;;;;;;5074100;28;20419;-71
2021/08/03 00:22:25;;;;;;;5.03;2.40;;;14.60;99.90;;;;;;5074433;28;20479;-72
2021/08/03 00:25:12;;;;;;;5.03;2.60;;;14.80;99.90;;;;;;5073600;28;20431;-72
2021/08/03 00:27:58;;;;;;;4.03;2.80;;;14.90;99.90;;;;;;5065820;28;20429;-71
2021/08/03 00:30:44;;;;;;;3.10;2.60;;;14.80;99.90;;;;;;5069043;28;20448;-72
2021/08/03 00:33:31;;;;;;;6.73;2.60;;;14.80;99.90;;;;;;5068301;28;20429;-71
2021/08/03 00:36:17;;;;;;;4.60;3.33;;;14.70;99.90;;;;;;5065583;28;20448;-71
2021/08/03 00:39:02;;;;;;;9.93;3.50;;;14.60;99.90;;;;;;5071987;28;20404;-72
2021/08/03 00:41:53;;;;;;;7.87;3.70;;;14.70;99.90;;;;;;5064452;28;20964;-72
2021/08/03 00:44:44;;;;;;;21.93;5.43;;;14.80;99.90;;;;;;5073082;28;20435;-72
2021/08/03 00:47:30;;;;;;;14.93;4.73;;;14.90;99.90;;;;;;5073312;28;20427;-71
2021/08/03 00:50:17;;;;;;;6.90;4.73;;;14.90;99.90;;;;;;5073088;28;20442;-71
2021/08/03 00:53:03;;;;;;;8.17;4.57;;;14.80;99.90;;;;;;5067906;28;20414;-71
2021/08/03 00:55:50;;;;;;;5.27;4.67;;;14.80;99.90;;;;;;5061371;28;20453;-71
2021/08/03 00:58:36;;;;;;;3.93;3.47;;;14.90;99.90;;;;;;5065615;28;20473;-71
2021/08/03 01:01:22;;;;;;;4.90;3.23;;;15.00;99.90;;;;;;5072260;28;20530;-72
2021/08/03 01:04:10;;;;;;;4.40;3.50;;;15.10;99.90;;;;;;5067308;28;20472;-71
2021/08/03 01:07:04;;;;;;;6.80;3.23;;;15.20;99.90;;;;;;5072735;28;20421;-72
2021/08/03 01:10:10;;;;;;;4.77;4.10;;;15.20;99.90;;;;;;5072679;28;20886;-72
2021/08/03 01:13:02;;;;;;;7.17;3.90;;;15.10;99.90;;;;;;5067462;28;20943;-71
2021/08/03 01:15:55;;;;;;;7.53;4.53;;;14.90;99.90;;;;;;5072395;28;20820;-71
2021/08/03 01:18:48;;;;;;;5.87;4.00;;;14.90;99.90;;;;;;5072283;28;20449;-71
2021/08/03 01:21:46;;;;;;;5.67;4.27;;;14.90;99.90;;;;;;5073401;28;20423;-71
2021/08/03 01:25:00;;;;;;;6.50;3.77;;;14.80;99.90;;;;;;5071848;28;20585;-72
2021/08/03 01:28:11;;;;;;;5.43;3.50;;;14.80;99.90;;;;;;5071350;28;20518;-71
2021/08/03 01:31:01;;;;;;;6.63;3.47;;;14.90;99.90;;;;;;5064990;28;20484;-71
2021/08/03 01:33:49;;;;;;;6.20;3.73;;;14.90;99.90;;;;;;5065013;28;20970;-71
2021/08/03 01:36:38;;;;;;;5.07;3.50;;;14.90;99.90;;;;;;5072054;28;20990;-71
2021/08/03 01:39:26;;;;;;;7.23;3.80;;;14.90;99.90;;;;;;5072446;28;20424;-72
2021/08/03 01:42:13;;;;;;;10.20;3.43;;;15.00;99.90;;;;;;5071662;28;20468;-73
2021/08/03 01:45:02;;;;;;;4.00;3.60;;;15.00;99.90;;;;;;5065443;28;20466;-71
2021/08/03 01:47:48;;;;;;;4.50;3.57;;;15.10;99.90;;;;;;5065075;28;20384;-72
2021/08/03 01:50:34;;;;;;;4.20;3.67;;;15.10;99.90;;;;;;5069839;28;20547;-71
2021/08/03 01:53:21;;;;;;;4.60;3.57;;;15.00;99.90;;;;;;5061941;28;20868;-72
2021/08/03 01:56:08;;;;;;;6.60;3.83;;;15.10;99.90;;;;;;5072094;28;20438;-71
2021/08/03 01:58:55;;;;;;;5.47;3.67;;;15.00;99.90;;;;;;5066877;28;20949;-72
2021/08/03 02:01:42;;;;;;;8.00;3.00;;;14.90;99.90;;;;;;5071230;28;20469;-72
2021/08/03 02:04:29;;;;;;;6.90;4.07;;;14.90;99.90;;;;;;5068804;28;20456;-71
2021/08/03 02:07:16;;;;;;;6.20;3.43;;;14.90;99.90;;;;;;5070923;28;20447;-72
2021/08/03 02:10:03;;;;;;;9.73;3.40;;;14.90;99.90;;;;;;5064779;28;20484;-71
2021/08/03 02:12:50;;;;;;;5.43;4.27;;;14.80;99.90;;;;;;5064699;28;20758;-72
2021/08/03 02:15:36;;;;;;;17.60;4.10;;;14.80;99.90;;;;;;5069758;28;20536;-71
2021/08/03 02:18:23;;;;;;;4.40;3.40;;;14.70;99.90;;;;;;5071153;28;20491;-72
2021/08/03 02:21:09;;;;;;;5.43;4.00;;;14.60;99.90;;;;;;5065039;28;20452;-71
2021/08/03 02:23:54;;;;;;;4.10;3.43;;;14.50;99.90;;;;;;5071559;28;20471;-71
2021/08/03 02:26:40;;;;;;;5.00;4.20;;;14.50;99.90;;;;;;5071135;28;20448;-71
2021/08/03 02:29:26;;;;;;;4.10;3.67;;;14.30;99.90;;;;;;5071273;28;20826;-72
2021/08/03 02:32:16;;;;;;;8.00;4.20;;;14.30;99.90;;;;;;5066217;28;20992;-72
2021/08/03 02:35:09;;;;;;;6.33;3.60;;;14.30;99.90;;;;;;5064951;28;20454;-71
2021/08/03 02:37:59;;;;;;;8.53;4.80;;;14.30;99.90;;;;;;5064471;28;20447;-71
2021/08/03 02:40:45;;;;;;;6.60;3.87;;;14.30;99.90;;;;;;5075135;28;20956;-71
2021/08/03 02:43:33;;;;;;;4.70;3.20;;;14.30;99.90;;;;;;5071084;28;20566;-71
2021/08/03 02:46:22;;;;;;;7.87;3.97;;;14.40;99.90;;;;;;5071364;28;20403;-71
2021/08/03 02:49:13;;;;;;;6.70;4.00;;;14.50;99.90;;;;;;5071182;28;20467;-71
2021/08/03 02:52:00;;;;;;;4.13;3.50;;;14.50;99.90;;;;;;5069025;28;20464;-71
2021/08/03 02:54:52;;;;;;;8.27;3.97;;;14.60;99.90;;;;;;5052300;28;20449;-71
2021/08/03 02:57:39;;;;;;;5.33;3.73;;;14.60;99.90;;;;;;5070489;28;20817;-71
2021/08/03 03:00:25;;;;;;;8.13;5.13;;;14.60;99.90;;;;;;5067905;28;20458;-71
2021/08/03 03:03:16;;;;;;;5.67;4.33;;;14.50;99.90;;;;;;5064092;28;20610;-72
2021/08/03 03:06:05;;;;;;;6.00;4.40;;;14.30;99.90;;;;;;5064059;28;20625;-71
2021/08/03 03:08:54;;;;;;;6.03;4.43;;;14.30;99.90;;;;;;5061139;28;20460;-71
2021/08/03 03:11:41;;;;;;;9.40;4.10;;;14.30;99.90;;;;;;5106064;22;20460;-76
2021/08/03 03:14:28;;;;;;;6.50;3.40;;;14.40;99.90;;;;;;5058876;28;20448;-77
2021/08/03 03:17:17;;;;;;;7.53;3.80;;;14.40;99.90;;;;;;5058049;28;20959;-77
2021/08/03 03:20:04;;;;;;;10.23;4.70;;;14.50;99.90;;;;;;5065374;28;20556;-77
2021/08/03 03:22:54;;;;;;;7.57;4.73;;;14.40;99.90;;;;;;5051877;28;20518;-77
2021/08/03 03:25:42;;;;;;;5.17;4.40;;;14.50;99.90;;;;;;5050842;28;20887;-77
2021/08/03 03:28:30;;;;;;;9.33;4.40;;;14.50;99.90;;;;;;5040332;28;20451;-77
2021/08/03 03:31:16;;;;;;;7.33;4.10;;;14.50;99.90;;;;;;5042062;28;20540;-77
2021/08/03 03:34:07;;;;;;;6.90;4.70;;;14.40;99.90;;;;;;5038560;28;20432;-77
2021/08/03 03:36:53;;;;;;;9.80;3.47;;;14.40;99.90;;;;;;5036531;28;20397;-77
2021/08/03 03:39:40;;;;;;;6.33;4.70;;;14.40;99.90;;;;;;5037371;28;20444;-77
2021/08/03 03:42:31;;;;;;;9.90;4.73;;;14.40;99.90;;;;;;5040812;28;20451;-77
2021/08/03 03:45:18;;;;;;;5.17;4.30;;;14.40;99.90;;;;;;5050711;28;20453;-76
2021/08/03 03:48:08;;;;;;;9.50;4.80;;;14.30;99.90;;;;;;5032078;28;20918;-76
2021/08/03 03:50:59;;;;;;;4.97;3.97;;;14.20;99.90;;;;;;5043697;28;20876;-75
2021/08/03 03:53:49;;;;;;;4.93;3.93;;;14.30;99.90;;;;;;5047665;28;20420;-77
2021/08/03 03:56:41;;;;;;;6.30;4.00;;;14.30;99.90;;;;;;5031035;28;20918;-77
2021/08/03 03:59:28;;;;;;;6.70;4.37;;;14.30;99.90;;;;;;5031137;28;20397;-77
2021/08/03 04:02:15;;;;;;;14.43;4.87;;;14.20;99.90;;;;;;5031375;28;20446;-76
2021/08/03 04:05:02;;;;;;;8.47;5.27;;;14.20;99.90;;;;;;5028560;28;20448;-77
2021/08/03 04:07:51;;;;;;;6.33;5.43;;;14.10;99.90;;;;;;5032715;28;20464;-77
2021/08/03 04:10:38;;;;;;;11.63;4.80;;;14.10;99.90;;;;;;5041475;28;20560;-77
2021/08/03 04:13:24;;;;;;;10.00;5.40;;;14.10;99.90;;;;;;5044034;28;20453;-76
2021/08/03 04:16:11;;;;;;;4.90;4.40;;;14.10;99.90;;;;;;5039848;28;20969;-77
2021/08/03 04:18:57;;;;;;;5.67;4.67;;;14.10;99.90;;;;;;5037427;28;20835;-77
2021/08/03 04:21:45;;;;;;;14.50;5.50;;;14.10;99.90;;;;;;5049767;28;20437;-77
2021/08/03 04:24:31;;;;;;;6.30;5.20;;;14.30;99.90;;;;;;5038400;28;20602;-78
2021/08/03 04:27:18;;;;;;;9.83;5.50;;;14.30;99.90;;;;;;5046470;28;20402;-77
2021/08/03 04:30:05;;;;;;;6.23;4.83;;;14.40;99.90;;;;;;5025945;28;20424;-77
2021/08/03 04:32:52;;;;;;;7.73;4.83;;;14.50;99.90;;;;;;5029895;28;20449;-76
2021/08/03 04:35:38;;;;;;;8.13;5.37;;;14.50;99.90;;;;;;5043838;28;20515;-77
2021/08/03 04:38:23;;;;;;;7.00;5.47;;;14.60;99.90;;;;;;5050327;28;20497;-77
2021/08/03 04:41:09;;;;;;;6.13;4.20;;;14.60;99.90;;;;;;5050310;28;20445;-76
2021/08/03 04:43:55;;;;;;;4.90;4.27;;;14.70;99.90;;;;;;5049253;28;21040;-77
2021/08/03 04:46:41;;;;;;;8.17;4.47;;;14.70;99.90;;;;;;5054069;28;20612;-76
2021/08/03 04:49:28;;;;;;;11.47;4.27;;;14.70;99.90;;;;;;5041033;28;20508;-77
2021/08/03 04:52:13;;;;;;;8.50;4.23;;;14.80;99.90;;;;;;5035032;28;21032;-77
2021/08/03 04:54:59;;;;;;;11.27;4.10;;;14.70;99.90;;;;;;5038205;28;20811;-76
2021/08/03 04:57:45;;;;;;;7.97;4.27;;;14.80;99.90;;;;;;5054067;28;20403;-77
2021/08/03 05:00:31;;;;;;;5.10;4.60;;;14.70;99.90;;;;;;5037096;28;20497;-77
2021/08/03 05:03:16;;;;;;;6.07;4.23;;;14.70;99.90;;;;;;5044229;28;20547;-77
2021/08/03 05:06:03;;;;;;;8.23;4.27;;;14.70;99.90;;;;;;5028701;28;20911;-77
2021/08/03 05:08:49;;;;;;;7.77;5.00;;;14.70;99.90;;;;;;5033859;28;20426;-77
2021/08/03 05:11:34;;;;;;;4.43;3.73;;;14.80;99.90;;;;;;5043425;28;20477;-77
2021/08/03 05:14:20;;;;;;;10.73;4.50;;;14.80;99.90;;;;;;5046304;28;20911;-77
2021/08/03 05:17:06;;;;;;;6.57;5.03;;;14.90;99.90;;;;;;5053742;28;20428;-77
2021/08/03 05:19:52;;;;;;;6.33;4.60;;;14.90;99.90;;;;;;5031718;28;20445;-76
2021/08/03 05:22:39;;;;;;;4.73;3.97;;;15.00;99.90;;;;;;5043075;28;20478;-77
2021/08/03 05:25:25;;;;;;;6.83;4.40;;;15.00;99.90;;;;;;5042669;28;20979;-77
2021/08/03 05:28:10;;;;;;;4.80;4.00;;;15.10;99.90;;;;;;5039008;28;20929;-77
2021/08/03 05:30:56;;;;;;;8.23;4.80;;;15.20;99.90;;;;;;5029667;28;20447;-77
2021/08/03 05:33:42;;;;;;;10.07;4.13;;;15.10;99.90;;;;;;5052798;28;20434;-77
2021/08/03 05:36:27;;;;;;;4.37;3.97;;;15.20;99.90;;;;;;5050179;28;20445;-77
2021/08/03 05:39:14;;;;;;;11.03;4.40;;;15.20;99.90;;;;;;5039533;28;20818;-76
2021/08/03 05:42:00;;;;;;;5.60;4.80;;;15.20;99.90;;;;;;5047084;28;20763;-77
2021/08/03 05:44:46;;;;;;;11.03;4.90;;;15.20;99.90;;;;;;5048586;28;20961;-77
2021/08/03 05:47:32;;;;;;;8.40;5.10;;;15.20;99.90;;;;;;5043612;28;21308;-77
2021/08/03 05:50:17;;;;;;;4.70;4.07;;;15.30;99.90;;;;;;5043801;28;21024;-76
2021/08/03 05:53:03;;;;;;;31.73;8.70;;;15.30;99.90;;;;;;5029370;28;20860;-77
2021/08/03 05:55:50;;;;;;;23.47;7.30;;;15.40;99.90;;;;;;5035262;28;20441;-77
2021/08/03 05:58:35;;;;;;;17.00;5.67;;;15.40;99.90;;;;;;5052806;28;20443;-77
2021/08/03 06:01:21;;;;;;;22.43;5.80;;;15.50;99.90;;;;;;5032835;28;20905;-76
2021/08/03 06:04:07;;;;;;;11.50;5.47;;;15.50;99.90;;;;;;5049072;28;20519;-77
2021/08/03 06:06:55;;;;;;;15.50;4.80;;;15.60;99.90;;;;;;5043706;28;20768;-75
2021/08/03 06:09:42;;;;;;;9.67;5.33;;;15.60;99.90;;;;;;5035558;28;20540;-77
2021/08/03 06:12:34;;;;;;;10.53;5.10;;;15.60;99.90;;;;;;5050105;28;20437;-77
2021/08/03 06:15:20;;;;;;;7.17;5.30;;;15.60;99.90;;;;;;5032533;28;20906;-76
2021/08/03 06:18:11;;;;;;;10.30;5.33;;;15.70;99.90;;;;;;5045929;28;20444;-77
2021/08/03 06:20:58;;;;;;;8.23;4.60;;;15.70;99.90;;;;;;5031441;28;20585;-75
2021/08/03 06:23:44;;;;;;;8.87;4.80;;;15.70;99.90;;;;;;5052547;28;20429;-77
2021/08/03 06:26:30;;;;;;;5.60;4.40;;;15.80;99.90;;;;;;5033841;28;20434;-75
2021/08/03 06:29:19;;;;;;;10.63;4.50;;;15.80;99.90;;;;;;5037516;28;20552;-77
2021/08/03 06:32:07;;;;;;;15.23;5.10;;;15.80;99.90;;;;;;5026552;28;20466;-77
2021/08/03 06:34:53;;;;;;;9.43;5.87;;;15.90;99.90;;;;;;5023328;28;20446;-77
2021/08/03 06:37:39;;;;;;;18.40;5.90;;;15.90;99.90;;;;;;5050073;28;20400;-76
2021/08/03 06:40:24;;;;;;;8.13;5.17;;;15.90;99.90;;;;;;5038504;28;20813;-76
2021/08/03 06:43:16;;;;;;;12.70;5.60;;;15.90;99.90;;;;;;5048022;28;20453;-76
2021/08/03 06:46:07;;;;;;;13.83;5.27;;;15.90;99.90;;;;;;5036396;28;20938;-77
2021/08/03 06:48:57;;;;;;;9.53;5.50;;;16.00;99.90;;;;;;5037403;28;20527;-76
2021/08/03 06:51:44;;;;;;;8.73;5.77;;;16.00;99.90;;;;;;5047440;28;20989;-74
2021/08/03 06:54:31;;;;;;;6.97;5.60;;;16.00;99.90;;;;;;5029469;28;20425;-73
2021/08/03 06:57:19;;;;;;;13.00;5.30;;;16.00;99.90;;;;;;5038881;28;21159;-75
2021/08/03 07:00:08;;;;;;;11.57;5.70;;;16.10;99.90;;;;;;5036537;28;20549;-76
2021/08/03 07:02:58;;;;;;;9.07;5.43;;;16.10;99.90;;;;;;5034843;28;20552;-76
2021/08/03 07:05:51;;;;;;;15.57;6.27;;;16.10;99.90;;;;;;5043368;28;20528;-76
2021/08/03 07:08:38;;;;;;;8.43;6.87;;;16.00;99.90;;;;;;5031742;28;20898;-76
2021/08/03 07:11:28;;;;;;;8.30;6.37;;;16.10;99.90;;;;;;5047547;28;20810;-75
2021/08/03 07:14:15;;;;;;;8.90;6.00;;;16.20;99.90;;;;;;5044727;28;20425;-76
2021/08/03 07:17:02;;;;;;;8.47;5.70;;;16.20;99.90;;;;;;5043887;28;20503;-77
2021/08/03 07:19:50;;;;;;;8.60;5.83;;;16.20;99.90;;;;;;5038947;28;20559;-77
2021/08/03 07:22:38;;;;;;;6.50;5.60;;;16.20;99.90;;;;;;5046705;28;20557;-77
2021/08/03 07:25:24;;;;;;;7.73;5.27;;;16.20;99.90;;;;;;5041091;28;20581;-75
2021/08/03 07:28:10;;;;;;;8.50;5.30;;;16.20;99.90;;;;;;5043983;28;20842;-76
2021/08/03 07:30:55;;;;;;;6.30;5.37;;;16.30;99.90;;;;;;5045224;28;20430;-78
2021/08/03 07:33:41;;;;;;;5.73;5.10;;;16.40;99.90;;;;;;5034443;28;20483;-78
2021/08/03 07:36:28;;;;;;;6.80;5.60;;;16.40;99.90;;;;;;5046067;28;20784;-76
2021/08/03 07:39:14;;;;;;;7.47;6.13;;;16.20;99.90;;;;;;5049140;28;20461;-76
2021/08/03 07:42:00;;;;;;;6.47;5.80;;;16.10;99.90;;;;;;5023966;28;20440;-77
2021/08/03 07:44:46;;;;;;;6.73;5.80;;;16.10;99.90;;;;;;5023150;28;20445;-78
2021/08/03 07:47:33;;;;;;;7.80;5.50;;;16.20;99.90;;;;;;5040697;28;20429;-78
2021/08/03 07:50:20;;;;;;;10.50;6.30;;;16.10;99.90;;;;;;5037470;28;20438;-76
2021/08/03 07:53:08;;;;;;;9.77;6.30;;;16.10;99.90;;;;;;5034471;28;21054;-77
2021/08/03 07:55:54;;;;;;;6.10;5.50;;;16.10;99.90;;;;;;5043768;28;20456;-77
2021/08/03 07:58:40;;;;;;;8.17;6.03;;;16.20;99.90;;;;;;5045299;28;20789;-78
2021/08/03 08:01:25;;;;;;;7.27;5.87;;;16.20;99.90;;;;;;5039494;28;20567;-77
2021/08/03 08:04:11;;;;;;;6.80;6.07;;;16.30;99.90;;;;;;5039816;28;20509;-76
2021/08/03 08:06:57;;;;;;;6.47;5.87;;;16.40;99.90;;;;;;5043676;28;20937;-76
2021/08/03 08:09:44;;;;;;;6.63;6.03;;;16.40;99.90;;;;;;5035600;28;20498;-77
2021/08/03 08:12:29;;;;;;;6.07;4.87;;;16.40;99.90;;;;;;5046192;28;20456;-78
2021/08/03 08:15:15;;;;;;;6.20;5.17;;;16.40;99.90;;;;;;5051996;28;20397;-77
2021/08/03 08:18:05;;;;;;;7.17;4.60;;;16.40;99.90;;;;;;5049433;28;20426;-77
2021/08/03 08:20:51;;;;;;;4.67;4.20;;;16.50;99.90;;;;;;5048120;28;20422;-76
2021/08/03 08:23:36;;;;;;;8.23;4.73;;;16.40;99.90;;;;;;5038524;28;20413;-76
2021/08/03 08:26:23;;;;;;;6.97;4.80;;;16.40;99.90;;;;;;5051937;28;20830;-75
2021/08/03 08:29:09;;;;;;;7.23;5.10;;;16.40;99.90;;;;;;5038463;28;20503;-74
2021/08/03 08:31:55;;;;;;;4.97;4.00;;;16.40;99.90;;;;;;5037946;28;20521;-75
2021/08/03 08:34:41;;;;;;;4.73;3.90;;;16.50;99.90;;;;;;5032680;28;20417;-75
2021/08/03 08:37:26;;;;;;;11.53;5.63;;;16.50;99.90;;;;;;5033927;28;20426;-76
2021/08/03 08:40:13;;;;;;;6.63;4.67;;;16.50;99.90;;;;;;5047554;28;20909;-76
2021/08/03 08:43:00;;;;;;;6.80;5.03;;;16.50;99.90;;;;;;5033119;28;20432;-76
2021/08/03 08:45:46;;;;;;;5.63;3.90;;;16.60;99.90;;;;;;5046555;28;20835;-76
2021/08/03 08:48:33;;;;;;;8.50;4.90;;;16.60;99.90;;;;;;5039705;28;20455;-78
2021/08/03 08:51:19;;;;;;;6.80;4.53;;;16.50;99.90;;;;;;5034206;28;20529;-78
2021/08/03 08:54:04;;;;;;;8.63;4.30;;;16.50;99.90;;;;;;5035997;28;20469;-76
2021/08/03 08:56:50;;;;;;;7.57;4.27;;;16.60;99.90;;;;;;5037550;28;21000;-77
2021/08/03 08:59:38;;;;;;;4.87;4.07;;;16.70;99.90;;;;;;5030380;28;20429;-77
2021/08/03 09:02:34;;;;;;;6.00;4.07;;;16.70;99.90;;;;;;5032724;28;20461;-76
2021/08/03 09:05:29;;;;;;;6.47;3.50;;;16.60;99.90;;;;;;5029386;28;20690;-77
2021/08/03 09:08:14;;;;;;;6.90;4.37;;;16.60;99.90;;;;;;5035583;28;20481;-75
2021/08/03 09:11:09;;;;;;;5.17;4.23;;;16.60;99.90;;;;;;5040785;28;20945;-77
2021/08/03 09:13:58;;;;;;;6.37;3.87;;;16.60;99.90;;;;;;5084171;22;20544;-73
2021/08/03 09:16:47;;;;;;;5.93;3.83;;;16.60;99.90;;;;;;5082954;28;20424;-74
2021/08/03 09:19:37;;;;;;;7.60;4.00;;;16.60;99.90;;;;;;5075276;28;20440;-74
2021/08/03 09:22:24;;;;;;;7.53;3.40;;;16.70;99.90;;;;;;5080831;28;20449;-73
2021/08/03 09:25:12;;;;;;;4.67;3.70;;;16.70;99.90;;;;;;5052242;28;20444;-73
2021/08/03 09:28:03;;;;;;;3.60;2.23;;;16.80;99.90;;;;;;5052260;28;20773;-74
2021/08/03 09:30:48;;;;;;;2.60;1.83;;;16.60;99.90;;;;;;5055534;28;20994;-74
2021/08/03 09:33:47;;;;;;;2.53;1.90;;;16.60;99.90;;;;;;5057599;28;20586;-74
2021/08/03 09:36:51;;;;;;;3.60;2.00;;;16.60;99.90;;;;;;5055496;28;20413;-74
2021/08/03 09:39:42;;;;;;;4.40;2.00;;;16.40;99.90;;;;;;5053034;28;20421;-74
2021/08/03 09:42:28;;;;;;;7.50;2.20;;;16.30;99.90;;;;;;5052093;28;20528;-74
2021/08/03 09:45:14;;;;;;;10.10;2.87;;;16.40;99.90;;;;;;5061730;28;20432;-73
2021/08/03 09:48:11;;;;;;;2.77;1.70;;;16.50;99.90;;;;;;5055567;28;20421;-71
2021/08/03 09:51:09;;;;;;;3.97;2.23;;;16.60;99.90;;;;;;5059526;28;20412;-71
2021/08/03 09:53:54;;;;;;;3.23;2.10;;;16.60;99.90;;;;;;5046280;28;20444;-71
2021/08/03 09:56:40;;;;;;;3.80;1.80;;;16.70;99.90;;;;;;5055403;28;20871;-71
2021/08/03 09:59:34;;;;;;;2.90;1.83;;;16.80;99.90;;;;;;5055411;28;20445;-72
2021/08/03 10:02:22;;;;;;;3.80;2.73;;;16.80;99.90;;;;;;5056792;28;20458;-70
2021/08/03 10:05:08;;;;;;;3.70;2.10;;;16.70;99.90;;;;;;5048226;28;21009;-72
2021/08/03 10:07:56;;;;;;;3.30;1.73;;;16.50;99.90;;;;;;5057938;28;20464;-72
2021/08/03 10:10:41;;;;;;;3.03;1.90;;;16.50;99.90;;;;;;5046328;28;20432;-74
2021/08/03 10:13:27;;;;;;;2.60;1.70;;;16.60;99.90;;;;;;5055731;28;20543;-73
2021/08/03 10:16:13;;;;;;;2.37;1.57;;;16.70;99.90;;;;;;5060300;28;20395;-73
2021/08/03 10:19:01;;;;;;;6.00;2.27;;;16.80;99.90;;;;;;5072640;28;20972;-72
2021/08/03 10:21:54;;;;;;;3.63;1.47;;;16.90;99.90;;;;;;5054441;28;20454;-72
2021/08/03 10:24:52;;;;;;;2.70;1.50;;;17.00;99.90;;;;;;5054692;28;20466;-72
2021/08/03 10:27:43;;;;;;;1.90;1.40;;;17.00;99.90;;;;;;5057400;28;20417;-72
2021/08/03 10:30:36;;;;;;;3.20;1.93;;;17.00;99.90;;;;;;5045940;28;20409;-72
2021/08/03 10:33:40;;;;;;;2.10;1.70;;;17.00;99.90;;;;;;5052427;28;20437;-72
2021/08/03 10:36:51;;;;;;;2.70;1.53;;;17.10;99.90;;;;;;5058183;28;20423;-72
2021/08/03 10:39:51;;;;;;;2.33;1.43;;;17.20;99.90;;;;;;5059238;28;20388;-71
2021/08/03 10:42:37;;;;;;;2.53;1.50;;;17.30;99.90;;;;;;5053220;28;20624;-72
2021/08/03 10:45:27;;;;;;;2.77;1.47;;;17.30;99.90;;;;;;5063080;28;20440;-72
2021/08/03 10:48:45;;;;;;;2.07;1.50;;;17.20;99.90;;;;;;5057404;28;20498;-72
2021/08/03 10:51:39;;;;;;;1.60;1.10;;;17.20;99.90;;;;;;5055746;28;20449;-72
2021/08/03 10:54:30;;;;;;;2.20;1.30;;;17.40;99.90;;;;;;5039559;28;20415;-72
2021/08/03 10:57:17;;;;;;;3.63;1.57;;;17.60;99.90;;;;;;5038127;28;20425;-72
2021/08/03 11:00:05;;;;;;;2.90;1.30;;;17.80;99.90;;;;;;5057278;28;20579;-72
2021/08/03 11:02:51;;;;;;;2.07;1.40;;;17.60;99.90;;;;;;5045080;28;20504;-72
2021/08/03 11:05:36;;;;;;;2.40;1.50;;;17.50;99.90;;;;;;5058750;28;20624;-72
2021/08/03 11:08:32;;;;;;;2.30;1.57;;;17.50;99.90;;;;;;5054691;28;20449;-72
2021/08/03 11:11:24;;;;;;;3.13;1.50;;;17.60;99.90;;;;;;5051574;28;20400;-71
2021/08/03 11:14:27;;;;;;;2.23;1.30;;;17.50;99.90;;;;;;5046065;28;20543;-73
2021/08/03 11:17:49;;;;;;;2.30;1.30;;;17.40;99.90;;;;;;5054526;28;20939;-73
2021/08/03 11:21:03;;;;;;;3.80;1.40;;;17.30;99.90;;;;;;5057359;28;20435;-71
2021/08/03 11:24:11;;;;;;;2.37;1.50;;;17.40;99.90;;;;;;5048355;28;20997;-73
2021/08/03 11:26:58;;;;;;;1.77;1.10;;;17.50;99.90;;;;;;5052339;28;20548;-72
2021/08/03 11:29:46;;;;;;;1.83;0.90;;;17.80;99.90;;;;;;5062637;28;20536;-73
2021/08/03 11:32:34;;;;;;;5.60;1.07;;;18.10;99.90;;;;;;5060768;28;20417;-73
2021/08/03 11:35:26;;;;;;;1.80;1.20;;;18.30;99.90;;;;;;5056063;28;20948;-73
2021/08/03 11:38:13;;;;;;;2.47;1.10;;;18.40;99.90;;;;;;5048053;28;20466;-73
2021/08/03 11:40:59;;;;;;;2.70;1.77;;;18.60;99.90;;;;;;5048467;28;20417;-72
2021/08/03 11:43:45;;;;;;;2.70;1.67;;;18.90;99.90;;;;;;5054874;28;20555;-73
2021/08/03 11:46:32;;;;;;;5.77;1.47;;;19.30;99.90;;;;;;5053222;28;20475;-73
2021/08/03 11:49:17;;;;;;;2.23;1.47;;;19.60;99.90;;;;;;5062853;28;20962;-71
2021/08/03 11:52:09;;;;;;;2.40;1.40;;;19.60;99.90;;;;;;5046455;28;20920;-73
2021/08/03 11:54:57;;;;;;;3.93;1.60;;;19.80;99.90;;;;;;5045492;28;20424;-73
2021/08/03 11:57:42;;;;;;;7.47;1.70;;;20.00;99.90;;;;;;5055498;28;20421;-74
2021/08/03 12:00:29;;;;;;;2.00;1.23;;;20.30;99.90;;;;;;5039469;28;20489;-73
2021/08/03 12:03:29;;;;;;;2.73;1.83;;;20.20;99.90;;;;;;5039823;28;20476;-73
2021/08/03 12:06:15;;;;;;;2.73;1.80;;;20.00;99.90;;;;;;5049076;28;20684;-73
2021/08/03 12:09:01;;;;;;;2.20;1.50;;;20.20;99.90;;;;;;5067967;28;20393;-74
2021/08/03 12:11:47;;;;;;;3.47;1.60;;;20.50;99.90;;;;;;5047322;28;20447;-73
2021/08/03 12:14:34;;;;;;;2.00;1.17;;;20.60;99.90;;;;;;5047274;28;20590;-73
2021/08/03 12:17:26;;;;;;;2.50;1.53;;;20.80;99.90;;;;;;5049340;28;20454;-73
2021/08/03 12:20:24;;;;;;;2.87;1.60;;;21.20;99.90;;;;;;5050688;28;20432;-73
2021/08/03 12:23:19;;;;;;;2.57;1.47;;;21.20;99.90;;;;;;5048785;28;20539;-73
2021/08/03 12:26:06;;;;;;;3.70;1.73;;;21.30;99.90;;;;;;5046340;28;20471;-72
2021/08/03 12:28:55;;;;;;;2.07;1.50;;;21.30;99.90;;;;;;5041542;28;20422;-73
2021/08/03 12:31:42;;;;;;;2.43;1.47;;;21.30;99.90;;;;;;5043105;28;20477;-73
2021/08/03 12:34:37;;;;;;;2.40;1.77;;;21.30;99.90;;;;;;5045297;28;21062;-73
2021/08/03 12:37:33;;;;;;;3.30;1.60;;;21.50;99.90;;;;;;5049602;28;20603;-73
2021/08/03 12:40:30;;;;;;;3.40;1.57;;;21.60;99.90;;;;;;5047494;28;20439;-73
2021/08/03 12:43:22;;;;;;;2.33;1.57;;;21.30;99.90;;;;;;5045305;28;20438;-74
2021/08/03 12:46:08;;;;;;;1.97;1.13;;;21.10;99.90;;;;;;5048471;28;20496;-73
2021/08/03 12:48:53;;;;;;;3.03;1.43;;;20.80;99.90;;;;;;5054793;28;20464;-73
2021/08/03 12:51:39;;;;;;;3.13;2.10;;;20.90;99.90;;;;;;5057323;28;20420;-73
2021/08/03 12:54:26;;;;;;;6.00;1.80;;;20.90;99.90;;;;;;5050069;28;20475;-73
2021/08/03 12:57:12;;;;;;;3.40;1.73;;;21.40;99.90;;;;;;5047884;28;20455;-73
2021/08/03 12:59:57;;;;;;;2.80;1.77;;;21.50;99.90;;;;;;5049061;28;20448;-73
2021/08/03 13:02:43;;;;;;;3.50;2.33;;;21.50;99.90;;;;;;5050719;28;20421;-73
2021/08/03 13:05:29;;;;;;;3.10;1.73;;;21.60;99.90;;;;;;5066938;28;20535;-73
2021/08/03 13:08:16;;;;;;;2.43;1.50;;;21.20;99.90;;;;;;5066422;28;20416;-73
2021/08/03 13:11:04;;;;;;;4.63;1.90;;;20.80;99.90;;;;;;5050754;28;20460;-73
2021/08/03 13:13:50;;;;;;;2.57;1.87;;;20.80;99.90;;;;;;5058045;28;20482;-73
2021/08/03 13:16:35;;;;;;;4.80;1.70;;;21.20;99.90;;;;;;5053751;28;20421;-73
2021/08/03 13:19:22;;;;;;;1.87;1.20;;;21.80;99.90;;;;;;5045788;28;20431;-73
2021/08/03 13:22:08;;;;;;;2.40;1.70;;;22.00;99.90;;;;;;5056494;28;20426;-72
2021/08/03 13:24:53;;;;;;;6.07;1.63;;;21.90;99.90;;;;;;5052529;28;20843;-73
2021/08/03 13:27:41;;;;;;;2.10;1.50;;;21.60;99.90;;;;;;5046574;28;20471;-73
2021/08/03 13:30:27;;;;;;;4.30;1.90;;;21.30;99.90;;;;;;5048710;28;20800;-73
2021/08/03 13:33:12;;;;;;;3.60;2.10;;;21.10;99.90;;;;;;5048222;28;20445;-74
2021/08/03 13:35:58;;;;;;;2.43;1.80;;;21.10;99.90;;;;;;5048825;28;20816;-73
2021/08/03 13:38:44;;;;;;;3.33;2.23;;;21.30;99.90;;;;;;5047457;28;20423;-73
2021/08/03 13:41:30;;;;;;;2.53;1.87;;;21.30;99.90;;;;;;5057190;28;20770;-73
2021/08/03 13:44:17;;;;;;;2.53;1.73;;;21.10;99.90;;;;;;5047933;28;20789;-73
2021/08/03 13:47:03;;;;;;;3.07;1.70;;;21.20;99.90;;;;;;5048009;28;20939;-72
2021/08/03 13:49:49;;;;;;;2.60;1.80;;;21.20;99.90;;;;;;5043117;28;20443;-72
2021/08/03 13:52:34;;;;;;;2.20;1.50;;;21.20;99.90;;;;;;5055460;28;20426;-73
2021/08/03 13:55:20;;;;;;;3.33;1.70;;;21.20;99.90;;;;;;5042947;28;20576;-73
2021/08/03 13:58:06;;;;;;;2.97;1.70;;;21.10;99.90;;;;;;5047558;28;20490;-74
2021/08/03 14:00:53;;;;;;;2.33;1.47;;;21.20;99.90;;;;;;5055357;28;21090;-74
2021/08/03 14:03:39;;;;;;;2.30;1.43;;;21.50;99.90;;;;;;5048399;28;20994;-74
2021/08/03 14:06:25;;;;;;;4.23;1.40;;;21.60;99.90;;;;;;5058964;28;20470;-71
2021/08/03 14:09:11;;;;;;;4.30;2.10;;;21.80;99.90;;;;;;5034790;28;20428;-73
2021/08/03 14:11:57;;;;;;;2.60;1.23;;;21.60;99.90;;;;;;5053495;28;20425;-76
2021/08/03 14:14:42;;;;;;;2.77;1.30;;;21.40;99.90;;;;;;5030860;28;20435;-73
2021/08/03 14:17:29;;;;;;;2.80;1.90;;;21.20;99.90;;;;;;5032090;28;20420;-73
2021/08/03 14:20:15;;;;;;;2.83;1.80;;;21.20;99.90;;;;;;5050404;28;20439;-73
2021/08/03 14:23:01;;;;;;;3.20;1.70;;;21.20;99.90;;;;;;5043846;28;20450;-73
2021/08/03 14:25:47;;;;;;;3.20;1.57;;;21.50;99.90;;;;;;5032351;28;20484;-73
2021/08/03 14:28:32;;;;;;;2.40;1.73;;;21.90;99.90;;;;;;5040558;28;20547;-74
2021/08/03 14:31:18;;;;;;;2.37;1.40;;;22.10;99.90;;;;;;5043972;28;20427;-72
2021/08/03 14:34:05;;;;;;;2.17;1.40;;;22.10;99.90;;;;;;5043992;28;20457;-73